• Join FlightAware (Why Join?)
  • Login
  • US Flag 
04:52AM EDT


 

Airport Tracker/Info


-or-


 

Live Flight TrackerFlight Track Log ✈ EGF3681 ✈ 15-Aug-2013 ✈ KORD - KDAY

Flight Track Log - Related Links

Times and Time Zones

All times are in EDT time to prevent confusion due to time zone crossing. See the EGF3681 flight status page for this flight to view local times or setup timezone preferences in your user account.

Time Position Orientation Groundspeed Altitude Reporting Facility
EDT Latitude Longitude Course Direction KTS MPH feet Rate Location/Type
11:59PM 42.0167 -87.9333 95° East 163 188 2,000  Level Chicago TRACON
12:00AM 42.0500 -87.9500 340° North 211 243 3,900 2,040 Climbing Chicago TRACON
12:01AM 41.9660 -87.5267 98° East  Level FlightAware Approximate
12:02AM 41.9537 -87.4034 98° East  Level FlightAware Approximate
12:02AM 42.0867 -87.8306 67° East 258 297 7,400  Level Chicago Center
12:03AM 41.9439 -87.2797 95° East  Level FlightAware Approximate
12:03AM 42.0689 -87.7342 104° East 264 304 9,700  Level Chicago Center
12:04AM 41.9350 -87.1559 95° East  Level FlightAware Approximate
12:04AM 42.0497 -87.6331 104° East 276 318 11,600  Level Chicago Center
12:05AM 42.0303 -87.5228 103° East 298 343 13,500 1,560 Climbing Chicago Center
12:06AM 42.0078 -87.4078 105° East 315 362 14,800 1,140 Climbing Chicago Center
12:07AM 41.9858 -87.2794 103° East 346 398 15,900 1,020 Climbing Chicago Center
12:08AM 41.9372 -87.1572 118° Southeast 369 425 16,900 840 Climbing Chicago Center
12:09AM 41.8781 -87.0358 123° Southeast 385 443 17,700 840 Climbing Chicago Center
12:10AM 41.8181 -86.9094 122° Southeast 398 458 18,700 960 Climbing Chicago Center
12:11AM 41.7569 -86.7814 123° Southeast 406 467 19,700 1,020 Climbing Chicago Center
12:12AM 41.6872 -86.6364 123° Southeast 416 479 20,800 1,020 Climbing Chicago Center
12:13AM 41.6239 -86.5031 122° Southeast 424 488 21,800 960 Climbing Chicago Center
12:14AM 41.5589 -86.3697 123° Southeast 430 495 22,800 960 Climbing Chicago Center
12:15AM 41.4950 -86.2347 122° Southeast 432 497 23,800 960 Climbing Chicago Center
12:16AM 41.4292 -86.1011 123° Southeast 434 499 24,800 540 Climbing Chicago Center
12:17AM 41.3628 -85.9669 123° Southeast 438 504 25,000 60 Climbing Chicago Center
12:18AM 41.2936 -85.8261 123° Southeast 455 524 25,000  Level Chicago Center
12:19AM 41.2128 -85.6956 129° Southeast 463 533 25,000  Level Chicago Center
12:20AM 41.1169 -85.5872 140° Southeast 457 526 25,000 -540 Level Chicago Center
12:21AM 41.0200 -85.4775 139° Southeast 461 531 24,000 -1,800 Descending Chicago Center
12:22AM 40.9064 -85.3467 139° Southeast 450 518 21,400 -2,340 Descending Chicago Center
12:23AM 40.8153 -85.2381 138° Southeast 447 514 19,300 -1,980 Descending Chicago Center
12:24AM 40.7281 -85.1397 139° Southeast 428 493 17,500 -1,860 Descending Chicago Center
12:25AM 40.6444 -85.0444 139° Southeast 415 478 15,600 -1,620 Descending Chicago Center
12:26AM 40.5633 -84.9539 140° Southeast 393 452 14,300 -1,320 Descending Chicago Center
12:27AM 40.4967 -84.8792 140° Southeast 389 448 13,100 -1,380 Descending Indianapolis Center
12:28AM 40.4136 -84.7878 140° Southeast 389 448 11,700 -1,200 Descending Indianapolis Center
12:29AM 40.3303 -84.7131 146° Southeast 357 411 10,800 -960 Descending Indianapolis Center
12:30AM 40.2567 -84.6561 149° Southeast 314 361 9,800 -1,200 Descending Indianapolis Center
12:31AM 40.1906 -84.6039 149° Southeast 288 331 8,500 -1,440 Descending Indianapolis Center
12:32AM 40.1261 -84.5528 149° Southeast 275 316 7,000 -1,500 Descending Indianapolis Center
12:33AM 40.0636 -84.5031 149° Southeast 266 306 5,500 -1,500 Descending Indianapolis Center
12:34AM 40.0014 -84.4544 149° Southeast 263 303 4,000 -1,260 Descending Indianapolis Center
12:35AM 39.9419 -84.4089 150° Southeast 255 293 3,000 -600 Descending Indianapolis Center
12:36AM 39.8900 -84.3683 149° Southeast 237 273 2,800 -480 Descending Indianapolis Center
12:37AM 39.8675 -84.3228 123° Southeast 178 205 2,100 -600 Descending Indianapolis Center
12:38AM 39.8744 -84.2842 77° East 151 174 1,700 -420 Descending Indianapolis Center